createdAt,value
2022-11-09T00:00:30.515Z,9.90
2022-11-09T00:01:30.512Z,10.70
2022-11-09T00:02:30.481Z,9.50
2022-11-09T00:03:30.479Z,9.60
2022-11-09T00:04:30.470Z,10.90
2022-11-09T00:05:30.457Z,12.30
2022-11-09T00:06:30.513Z,8.50
2022-11-09T00:07:30.436Z,10.60
2022-11-09T00:08:30.461Z,9.90
2022-11-09T00:09:30.465Z,8.50
2022-11-09T00:10:30.421Z,10.80
2022-11-09T00:11:30.414Z,8.50
2022-11-09T00:12:30.420Z,6.30
2022-11-09T00:13:30.406Z,9.90
2022-11-09T00:14:30.381Z,8.70
2022-11-09T00:15:30.392Z,9.50
2022-11-09T00:16:30.376Z,12.10
2022-11-09T00:17:30.357Z,9.50
2022-11-09T00:18:30.371Z,10.60
2022-11-09T00:19:30.351Z,6.40
2022-11-09T00:20:30.346Z,7.30
2022-11-09T00:21:30.326Z,9.00
2022-11-09T00:22:30.318Z,6.80
2022-11-09T00:23:30.353Z,7.80
2022-11-09T00:24:30.308Z,6.60
2022-11-09T00:25:30.329Z,6.20
2022-11-09T00:26:30.316Z,7.50
2022-11-09T00:27:30.287Z,6.80
2022-11-09T00:28:30.267Z,5.90
2022-11-09T00:29:30.283Z,7.40
2022-11-09T00:30:30.286Z,6.20
2022-11-09T00:31:30.252Z,5.90
2022-11-09T00:32:30.359Z,5.80
2022-11-09T00:33:31.016Z,4.00
2022-11-09T00:34:30.275Z,7.70
2022-11-09T00:35:30.228Z,5.70
2022-11-09T00:36:31.214Z,6.70
2022-11-09T00:37:30.305Z,5.90
2022-11-09T00:38:30.205Z,7.00
2022-11-09T00:39:30.248Z,8.10
2022-11-09T00:40:30.181Z,6.00
2022-11-09T00:41:30.186Z,5.90
2022-11-09T00:42:30.174Z,7.20
2022-11-09T00:43:30.164Z,8.10
2022-11-09T00:44:30.185Z,4.70
2022-11-09T00:45:30.186Z,5.30
2022-11-09T00:46:30.138Z,6.90
2022-11-09T00:47:30.171Z,6.50
2022-11-09T00:48:30.130Z,7.00
2022-11-09T00:49:30.143Z,5.60
2022-11-09T00:50:30.660Z,8.60
2022-11-09T00:51:30.104Z,5.00
2022-11-09T00:52:30.090Z,6.00
2022-11-09T00:53:30.127Z,4.50
2022-11-09T00:54:30.101Z,5.40
2022-11-09T00:55:30.108Z,5.80
2022-11-09T00:56:30.050Z,6.70
2022-11-09T00:57:30.103Z,6.40
2022-11-09T00:58:30.045Z,5.00
2022-11-09T00:59:30.048Z,3.50
2022-11-09T01:00:30.037Z,3.90
2022-11-09T01:01:30.108Z,2.80
2022-11-09T01:02:30.082Z,4.90
2022-11-09T01:03:30.006Z,6.00
2022-11-09T01:04:30.025Z,4.60
2022-11-09T01:05:30.000Z,6.30
2022-11-09T01:06:30.106Z,5.40
2022-11-09T01:07:30.017Z,7.10
2022-11-09T01:08:29.988Z,4.40
2022-11-09T01:09:29.982Z,5.10
2022-11-09T01:10:29.966Z,5.00
2022-11-09T01:11:29.939Z,5.50
2022-11-09T01:12:29.947Z,5.10
2022-11-09T01:13:29.947Z,5.50
2022-11-09T01:14:29.972Z,5.30
2022-11-09T01:15:29.941Z,5.30
2022-11-09T01:16:29.909Z,5.30
2022-11-09T01:17:29.985Z,8.00
2022-11-09T01:18:29.924Z,6.40
2022-11-09T01:19:29.907Z,6.20
2022-11-09T01:20:29.912Z,5.60
2022-11-09T01:21:29.936Z,5.40
2022-11-09T01:22:29.907Z,6.30
2022-11-09T01:23:29.872Z,6.40
2022-11-09T01:24:29.879Z,4.40
2022-11-09T01:25:29.860Z,8.20
2022-11-09T01:26:29.825Z,3.60
2022-11-09T01:27:29.844Z,5.00
2022-11-09T01:28:29.856Z,5.20
2022-11-09T01:29:29.831Z,3.90
2022-11-09T01:30:29.809Z,5.60
2022-11-09T01:31:29.791Z,5.30
2022-11-09T01:32:29.782Z,5.00
2022-11-09T01:33:29.808Z,6.00
2022-11-09T01:34:29.915Z,6.10
2022-11-09T01:35:29.773Z,8.20
2022-11-09T01:36:29.799Z,7.80
2022-11-09T01:37:29.765Z,5.80
2022-11-09T01:38:29.742Z,8.30
2022-11-09T01:39:30.764Z,6.30
2022-11-09T01:40:29.739Z,8.50
2022-11-09T01:41:29.750Z,7.10
2022-11-09T01:42:29.712Z,9.90
2022-11-09T01:43:29.702Z,5.90
2022-11-09T01:44:29.715Z,6.60
2022-11-09T02:02:14.321Z,5.50
2022-11-09T02:03:14.321Z,5.60
2022-11-09T02:04:14.279Z,6.10
2022-11-09T02:05:15.415Z,5.10
2022-11-09T02:06:15.425Z,5.10
2022-11-09T02:07:15.416Z,4.50
2022-11-09T02:08:15.418Z,6.00
2022-11-09T02:09:15.385Z,3.50
2022-11-09T02:10:15.361Z,5.60
2022-11-09T02:11:15.390Z,4.60
2022-11-09T02:12:15.344Z,6.10
2022-11-09T02:13:47.291Z,3.90
2022-11-09T02:14:15.328Z,5.90
2022-11-09T02:15:15.336Z,7.50
2022-11-09T02:16:15.320Z,8.00
2022-11-09T02:17:15.309Z,5.30
2022-11-09T02:18:15.305Z,5.50
2022-11-09T02:19:15.321Z,3.40
2022-11-09T02:20:15.293Z,4.00
2022-11-09T02:21:15.269Z,5.80
2022-11-09T02:22:15.293Z,4.60
2022-11-09T02:23:15.278Z,7.40
2022-11-09T02:24:15.290Z,8.80
2022-11-09T02:25:15.245Z,6.00
2022-11-09T02:26:15.237Z,5.40
2022-11-09T02:27:15.237Z,4.70
2022-11-09T02:28:15.246Z,6.40
2022-11-09T02:29:15.227Z,7.50
2022-11-09T02:30:15.211Z,6.60
2022-11-09T02:31:15.201Z,6.90
2022-11-09T02:32:15.219Z,7.80
2022-11-09T02:33:15.202Z,7.10
2022-11-09T02:34:15.179Z,8.10
2022-11-09T02:35:15.192Z,5.50
2022-11-09T02:36:15.191Z,5.70
2022-11-09T02:37:15.169Z,4.70
2022-11-09T02:38:15.150Z,4.00
2022-11-09T02:39:15.171Z,9.50
2022-11-09T02:40:15.136Z,8.60
2022-11-09T02:41:15.117Z,6.30
2022-11-09T02:42:20.934Z,7.20
2022-11-09T02:43:17.561Z,5.90
2022-11-09T02:44:15.106Z,7.80
2022-11-09T02:45:15.105Z,6.00
2022-11-09T02:46:15.086Z,6.40
2022-11-09T02:47:15.082Z,8.30
2022-11-09T02:48:15.067Z,8.00
2022-11-09T02:49:15.040Z,4.80
2022-11-09T02:50:15.145Z,8.30
2022-11-09T02:51:15.048Z,6.10
2022-11-09T02:52:15.050Z,5.60
2022-11-09T02:53:15.029Z,10.50
2022-11-09T02:54:15.040Z,8.90
2022-11-09T02:55:15.029Z,8.00
2022-11-09T02:56:15.029Z,8.90
2022-11-09T02:57:15.012Z,6.60
2022-11-09T02:58:15.001Z,6.40
2022-11-09T02:59:15.532Z,6.90
2022-11-09T03:00:15.017Z,8.30
2022-11-09T03:01:15.017Z,8.50
2022-11-09T03:02:14.986Z,8.70
2022-11-09T03:03:15.959Z,6.30
2022-11-09T03:04:14.960Z,8.10
2022-11-09T03:05:14.972Z,7.10
2022-11-09T03:06:14.939Z,8.80
2022-11-09T03:07:14.977Z,9.50
2022-11-09T03:08:14.917Z,12.00
2022-11-09T03:09:14.941Z,7.90
2022-11-09T03:10:14.923Z,7.60
2022-11-09T03:11:14.900Z,9.90
2022-11-09T03:12:15.526Z,9.00
2022-11-09T03:13:14.932Z,7.50
2022-11-09T03:14:15.856Z,10.90
2022-11-09T03:15:14.857Z,8.80
2022-11-09T03:16:14.846Z,8.90
2022-11-09T03:17:14.842Z,9.20
2022-11-09T03:18:14.842Z,7.30
2022-11-09T03:19:14.828Z,7.30
2022-11-09T03:20:14.824Z,6.70
2022-11-09T03:21:14.860Z,8.30
2022-11-09T03:22:15.552Z,6.70
2022-11-09T03:23:14.826Z,8.00
2022-11-09T03:24:14.839Z,6.10
2022-11-09T03:25:14.798Z,8.30
2022-11-09T03:26:14.795Z,6.90
2022-11-09T03:27:14.795Z,7.00
2022-11-09T03:28:14.748Z,12.30
2022-11-09T03:29:14.749Z,10.90
2022-11-09T03:30:14.763Z,8.70
2022-11-09T03:31:14.743Z,8.30
2022-11-09T03:32:14.762Z,8.20
2022-11-09T03:33:14.780Z,7.20
2022-11-09T03:34:14.723Z,5.90
2022-11-09T03:35:14.694Z,9.20
2022-11-09T03:36:14.694Z,9.10
2022-11-09T03:37:14.763Z,8.40
2022-11-09T03:38:14.687Z,9.10
2022-11-09T03:39:14.771Z,8.60
2022-11-09T03:40:14.702Z,7.30
2022-11-09T03:41:14.684Z,7.10
2022-11-09T03:42:14.681Z,7.60
2022-11-09T03:43:14.642Z,7.80
2022-11-09T03:44:14.671Z,7.70
2022-11-09T03:45:14.663Z,7.40
2022-11-09T03:46:14.660Z,7.50
2022-11-09T03:47:14.638Z,6.50
2022-11-09T04:02:46.798Z,5.70
2022-11-09T04:03:46.771Z,9.90
2022-11-09T04:04:47.950Z,9.90
2022-11-09T04:05:47.894Z,7.20
2022-11-09T04:06:47.966Z,8.50
2022-11-09T04:07:47.865Z,6.10
2022-11-09T04:08:51.248Z,8.70
2022-11-09T04:09:48.945Z,5.60
2022-11-09T04:10:47.849Z,6.00
2022-11-09T04:11:47.845Z,6.70
2022-11-09T04:12:47.836Z,8.20
2022-11-09T04:13:47.826Z,6.70
2022-11-09T04:14:47.835Z,5.90
2022-11-09T04:15:47.798Z,5.90
2022-11-09T04:16:47.797Z,6.40
2022-11-09T04:17:47.774Z,5.20
2022-11-09T04:18:47.775Z,6.40
2022-11-09T04:19:47.807Z,5.90
2022-11-09T04:20:47.754Z,6.50
2022-11-09T04:21:47.800Z,6.60
2022-11-09T04:22:47.731Z,6.80
2022-11-09T04:23:47.757Z,6.40
2022-11-09T04:24:47.738Z,6.30
2022-11-09T04:25:47.785Z,5.90
2022-11-09T04:26:47.701Z,5.80
2022-11-09T04:27:47.731Z,8.20
2022-11-09T04:28:47.723Z,6.80
2022-11-09T04:29:47.676Z,6.90
2022-11-09T04:30:47.708Z,7.50
2022-11-09T04:31:47.674Z,6.30
2022-11-09T04:32:47.661Z,8.00
2022-11-09T04:33:47.646Z,6.70
2022-11-09T04:34:47.649Z,9.20
2022-11-09T04:35:47.645Z,4.90
2022-11-09T04:36:47.639Z,6.40
2022-11-09T04:37:47.628Z,5.60
2022-11-09T04:38:47.640Z,6.50
2022-11-09T04:39:47.606Z,7.90
2022-11-09T04:40:47.587Z,6.00
2022-11-09T04:41:48.449Z,6.40
2022-11-09T04:42:47.609Z,5.60
2022-11-09T04:43:47.583Z,4.00
2022-11-09T04:44:47.573Z,3.90
2022-11-09T04:45:47.555Z,4.70
2022-11-09T04:46:47.552Z,5.80
2022-11-09T04:47:47.571Z,4.60
2022-11-09T04:48:47.565Z,4.80
2022-11-09T04:49:47.545Z,4.80
2022-11-09T04:50:47.558Z,4.30
2022-11-09T04:51:47.564Z,4.30
2022-11-09T04:52:47.518Z,5.00
2022-11-09T04:53:47.549Z,4.80
2022-11-09T04:54:47.500Z,5.80
2022-11-09T04:55:47.508Z,3.00
2022-11-09T04:56:47.472Z,5.60
2022-11-09T04:57:47.451Z,5.10
2022-11-09T04:58:47.464Z,4.30
2022-11-09T04:59:49.402Z,5.00
2022-11-09T05:00:47.437Z,4.10
2022-11-09T05:02:19.341Z,3.60
2022-11-09T05:02:47.621Z,3.50
2022-11-09T05:03:47.500Z,3.70
2022-11-09T05:04:47.391Z,3.30
2022-11-09T05:05:48.694Z,3.90
2022-11-09T05:06:48.461Z,4.40
2022-11-09T05:07:47.427Z,3.80
2022-11-09T05:08:47.391Z,4.90
2022-11-09T05:09:47.399Z,4.30
2022-11-09T05:10:47.350Z,4.00
2022-11-09T05:11:47.360Z,4.70
2022-11-09T05:12:47.356Z,3.90
2022-11-09T05:13:47.344Z,6.30
2022-11-09T05:14:47.352Z,4.10
2022-11-09T05:15:47.435Z,3.20
2022-11-09T05:16:47.314Z,4.30
2022-11-09T05:17:47.303Z,4.50
2022-11-09T05:18:47.285Z,4.20
2022-11-09T05:19:47.318Z,3.50
2022-11-09T05:20:47.271Z,4.90
2022-11-09T05:21:50.294Z,5.00
2022-11-09T05:22:47.259Z,4.00
2022-11-09T05:23:47.272Z,3.80
2022-11-09T05:24:47.285Z,5.60
2022-11-09T05:25:47.281Z,5.40
2022-11-09T05:26:48.698Z,5.00
2022-11-09T05:27:47.227Z,4.90
2022-11-09T05:28:47.274Z,3.90
2022-11-09T05:29:47.202Z,5.70
2022-11-09T05:30:47.222Z,6.40
2022-11-09T05:31:51.947Z,4.30
2022-11-09T05:32:49.175Z,4.10
2022-11-09T05:33:47.172Z,6.40
2022-11-09T05:34:47.176Z,6.30
2022-11-09T05:35:47.185Z,6.60
2022-11-09T05:36:47.158Z,5.30
2022-11-09T05:37:47.120Z,5.00
2022-11-09T05:38:47.291Z,4.90
2022-11-09T05:39:47.169Z,5.90
2022-11-09T05:40:47.137Z,5.10
2022-11-09T05:41:47.141Z,4.00
2022-11-09T05:42:48.041Z,8.70
2022-11-09T05:43:47.121Z,4.50
2022-11-09T05:44:47.086Z,5.80
2022-11-09T05:45:47.085Z,4.20
2022-11-09T05:46:47.065Z,3.30
2022-11-09T05:47:47.079Z,5.40
2022-11-09T05:48:47.048Z,4.70
2022-11-09T05:49:47.055Z,3.20
2022-11-09T05:50:47.023Z,4.10
2022-11-09T05:51:47.053Z,3.80
2022-11-09T05:52:47.082Z,4.00
2022-11-09T05:53:47.345Z,3.50
2022-11-09T05:54:47.029Z,2.80
2022-11-09T05:55:46.991Z,3.70
2022-11-09T05:56:46.977Z,3.60
2022-11-09T05:57:46.983Z,4.30
2022-11-09T05:58:47.015Z,3.30
2022-11-09T05:59:47.018Z,4.10
2022-11-09T06:00:46.941Z,3.60
2022-11-09T06:01:46.979Z,4.30
2022-11-09T06:02:47.964Z,4.20
2022-11-09T06:03:46.925Z,3.80
2022-11-09T06:04:46.942Z,3.10
2022-11-09T06:05:46.897Z,4.40
2022-11-09T06:06:46.920Z,2.80
2022-11-09T06:07:46.903Z,3.90
2022-11-09T06:08:46.896Z,3.80
2022-11-09T06:09:46.882Z,5.40
2022-11-09T06:10:46.884Z,3.80
2022-11-09T06:11:46.851Z,3.90
2022-11-09T06:12:46.871Z,4.90
2022-11-09T06:13:46.903Z,2.90
2022-11-09T06:14:46.873Z,3.80
2022-11-09T06:15:46.905Z,3.70
2022-11-09T06:16:46.841Z,3.50
2022-11-09T06:17:46.826Z,3.10
2022-11-09T06:18:46.874Z,3.10
2022-11-09T06:19:46.879Z,2.90
2022-11-09T06:20:46.823Z,2.70
2022-11-09T06:21:46.790Z,4.30
2022-11-09T06:22:46.818Z,3.00
2022-11-09T06:23:47.752Z,2.70
2022-11-09T06:24:46.771Z,3.20
2022-11-09T06:25:46.774Z,2.90
2022-11-09T06:26:46.745Z,3.30
2022-11-09T06:27:46.720Z,3.20
2022-11-09T06:28:46.758Z,2.70
2022-11-09T06:29:46.742Z,3.70
2022-11-09T06:30:46.709Z,5.50
2022-11-09T06:31:46.753Z,7.20
2022-11-09T06:32:46.727Z,7.70
2022-11-09T06:33:46.668Z,4.10
2022-11-09T06:34:46.713Z,4.50
2022-11-09T06:35:49.837Z,3.90
2022-11-09T06:36:47.664Z,2.50
2022-11-09T06:37:46.669Z,2.80
2022-11-09T06:38:46.649Z,3.80
2022-11-09T06:39:46.658Z,3.40
2022-11-09T06:40:46.624Z,3.30
2022-11-09T06:41:47.726Z,3.80
2022-11-09T06:42:47.672Z,2.80
2022-11-09T06:43:46.621Z,2.80
2022-11-09T06:44:46.592Z,3.60
2022-11-09T06:45:46.587Z,3.20
2022-11-09T06:46:46.593Z,10.70
2022-11-09T06:47:46.596Z,15.80
2022-11-09T06:48:50.585Z,16.10
2022-11-09T06:49:48.540Z,18.30
2022-11-09T06:50:46.552Z,15.80
2022-11-09T06:51:46.584Z,16.80
2022-11-09T06:52:46.558Z,8.90
2022-11-09T06:53:46.533Z,8.80
2022-11-09T06:54:46.553Z,6.20
2022-11-09T06:55:50.549Z,6.40
2022-11-09T06:56:47.538Z,6.50
2022-11-09T06:57:46.521Z,5.40
2022-11-09T06:58:46.563Z,5.30
2022-11-09T06:59:46.539Z,3.70
2022-11-09T07:00:46.483Z,4.90
2022-11-09T07:01:46.542Z,4.40
2022-11-09T07:02:46.471Z,2.20
2022-11-09T07:03:46.454Z,2.10
2022-11-09T07:04:46.472Z,2.40
2022-11-09T07:05:46.426Z,3.60
2022-11-09T07:06:46.508Z,2.70
2022-11-09T07:07:46.461Z,2.10
2022-11-09T07:08:46.403Z,2.10
2022-11-09T07:09:46.515Z,3.00
2022-11-09T07:10:46.439Z,1.90
2022-11-09T07:11:46.422Z,2.50
2022-11-09T07:12:46.380Z,2.60
2022-11-09T07:13:46.398Z,2.40
2022-11-09T07:14:47.044Z,2.30
2022-11-09T07:15:46.364Z,3.60
2022-11-09T07:16:46.370Z,3.50
2022-11-09T07:17:46.333Z,2.60
2022-11-09T07:18:46.329Z,3.10
2022-11-09T07:19:46.354Z,2.60
2022-11-09T07:20:46.320Z,2.80
2022-11-09T07:21:46.345Z,3.20
2022-11-09T07:22:46.314Z,2.10
2022-11-09T07:23:46.316Z,2.40
2022-11-09T07:24:46.318Z,2.40
2022-11-09T07:25:46.268Z,3.10
2022-11-09T07:26:46.310Z,3.90
2022-11-09T07:27:46.271Z,1.90
2022-11-09T07:28:46.313Z,2.80
2022-11-09T07:29:46.271Z,2.60
2022-11-09T07:30:46.303Z,2.00
2022-11-09T07:31:46.245Z,1.60
2022-11-09T07:33:07.962Z,2.20
2022-11-09T07:33:48.222Z,2.90
2022-11-09T07:34:46.204Z,2.50
2022-11-09T07:35:46.231Z,3.50
2022-11-09T07:36:46.218Z,3.20
2022-11-09T07:37:46.191Z,2.80
2022-11-09T07:38:46.216Z,3.00
2022-11-09T07:39:46.202Z,2.50
2022-11-09T07:40:46.174Z,2.10
2022-11-09T07:41:46.189Z,2.10
2022-11-09T07:42:46.179Z,1.70
2022-11-09T07:43:46.197Z,2.60
2022-11-09T07:44:46.129Z,2.70
2022-11-09T07:45:46.130Z,1.80
2022-11-09T07:46:46.225Z,1.90
2022-11-09T07:47:46.094Z,2.10
2022-11-09T07:48:46.153Z,2.00
2022-11-09T07:49:46.117Z,1.90
2022-11-09T07:50:46.096Z,1.70
2022-11-09T07:51:46.121Z,3.20
2022-11-09T07:52:46.070Z,1.70
2022-11-09T07:53:46.057Z,1.70
2022-11-09T07:54:49.533Z,1.40
2022-11-09T07:55:48.062Z,3.20
2022-11-09T07:56:46.038Z,4.10
2022-11-09T07:57:46.040Z,2.60
2022-11-09T07:58:46.011Z,2.50
2022-11-09T07:59:46.022Z,2.10
2022-11-09T08:00:46.048Z,2.00
2022-11-09T08:01:46.064Z,3.30
2022-11-09T08:02:46.015Z,4.60
2022-11-09T08:03:46.011Z,5.10
2022-11-09T08:04:46.093Z,2.90
2022-11-09T08:05:45.962Z,4.10
2022-11-09T08:06:46.031Z,3.10
2022-11-09T08:07:45.954Z,1.60
2022-11-09T08:08:45.959Z,3.00
2022-11-09T08:09:45.968Z,1.20
2022-11-09T08:10:45.944Z,4.10
2022-11-09T08:11:45.929Z,2.80
2022-11-09T08:12:45.955Z,3.40
2022-11-09T08:14:17.847Z,4.10
2022-11-09T08:14:45.908Z,2.60
2022-11-09T08:15:45.950Z,1.80
2022-11-09T08:16:45.895Z,4.30
2022-11-09T08:17:45.895Z,4.60
2022-11-09T08:18:45.895Z,3.10
2022-11-09T08:19:45.879Z,2.00
2022-11-09T08:20:45.847Z,3.40
2022-11-09T08:21:45.827Z,3.10
2022-11-09T08:22:45.840Z,3.00
2022-11-09T08:23:45.852Z,4.20
2022-11-09T08:24:45.878Z,3.90
2022-11-09T08:25:45.814Z,2.10
2022-11-09T08:26:45.836Z,2.60
2022-11-09T08:27:45.808Z,2.50
2022-11-09T08:28:45.778Z,2.90
2022-11-09T08:29:45.779Z,2.00
2022-11-09T08:30:45.799Z,3.10
2022-11-09T08:31:45.789Z,3.30
2022-11-09T08:32:45.738Z,2.80
2022-11-09T08:33:45.766Z,4.60
2022-11-09T08:34:45.738Z,2.00
2022-11-09T08:35:50.536Z,1.40
2022-11-09T08:36:47.710Z,2.30
2022-11-09T08:37:45.700Z,3.40
2022-11-09T08:38:45.703Z,2.60
2022-11-09T08:39:45.706Z,1.60
2022-11-09T08:40:45.718Z,2.30
2022-11-09T08:41:45.679Z,2.00
2022-11-09T08:42:45.712Z,2.80
2022-11-09T08:43:45.680Z,2.70
2022-11-09T08:44:45.657Z,3.60
2022-11-09T08:45:46.628Z,1.80
2022-11-09T08:46:45.663Z,1.80
2022-11-09T08:47:45.683Z,1.80
2022-11-09T08:48:45.616Z,2.50
2022-11-09T08:49:45.608Z,1.50
2022-11-09T08:50:45.679Z,2.90
2022-11-09T08:51:45.625Z,5.30
2022-11-09T08:52:45.590Z,4.50
2022-11-09T08:53:45.600Z,3.70
2022-11-09T08:54:45.602Z,3.00
2022-11-09T08:55:49.339Z,2.00
2022-11-09T08:56:46.564Z,2.50
2022-11-09T08:57:45.556Z,3.00
2022-11-09T08:58:45.544Z,2.70
2022-11-09T08:59:45.563Z,2.50
2022-11-09T09:00:45.567Z,1.90
2022-11-09T09:01:45.619Z,2.00
2022-11-09T09:02:45.514Z,3.80
2022-11-09T09:03:45.550Z,3.10
2022-11-09T09:04:45.490Z,1.10
2022-11-09T09:05:46.101Z,2.20
2022-11-09T09:06:45.509Z,4.90
2022-11-09T09:07:45.482Z,1.90
2022-11-09T09:08:45.506Z,1.30
2022-11-09T09:09:45.483Z,2.00
2022-11-09T09:10:45.466Z,1.80
2022-11-09T09:11:45.439Z,1.70
2022-11-09T09:12:45.452Z,2.80
2022-11-09T09:13:45.432Z,1.60
2022-11-09T09:14:45.410Z,1.50
2022-11-09T09:15:45.410Z,1.90
2022-11-09T09:16:46.108Z,3.00
2022-11-09T09:17:45.400Z,2.20
2022-11-09T09:18:45.427Z,4.80
2022-11-09T09:19:49.850Z,1.70
2022-11-09T09:20:46.379Z,1.60
2022-11-09T09:21:45.420Z,2.30
2022-11-09T09:22:46.150Z,2.60
2022-11-09T09:23:45.353Z,3.00
2022-11-09T09:24:46.345Z,2.20
2022-11-09T09:25:45.347Z,1.70
2022-11-09T09:26:46.323Z,2.10
2022-11-09T09:27:45.334Z,2.30
2022-11-09T09:28:45.353Z,2.30
2022-11-09T09:29:45.310Z,3.00
2022-11-09T09:30:45.296Z,2.40
2022-11-09T09:31:45.279Z,3.00
2022-11-09T09:32:45.344Z,3.80
2022-11-09T09:33:45.259Z,2.20
2022-11-09T09:34:45.242Z,2.00
2022-11-09T09:35:46.276Z,2.30
2022-11-09T09:36:48.249Z,4.90
2022-11-09T09:37:46.276Z,2.60
2022-11-09T09:38:45.213Z,2.00
2022-11-09T09:39:45.279Z,1.70
2022-11-09T09:40:45.223Z,3.90
2022-11-09T09:41:45.206Z,2.20
2022-11-09T09:42:45.245Z,2.10
2022-11-09T09:43:45.182Z,2.20
2022-11-09T09:44:45.192Z,2.00
2022-11-09T09:45:45.196Z,3.00
2022-11-09T09:46:45.184Z,1.00
2022-11-09T09:47:45.197Z,1.60
2022-11-09T09:48:45.207Z,1.50
2022-11-09T09:49:45.249Z,1.40
2022-11-09T09:50:45.148Z,1.60
2022-11-09T09:51:45.163Z,1.20
2022-11-09T09:52:54.189Z,2.70
2022-11-09T09:53:47.123Z,4.00
2022-11-09T09:54:45.151Z,0.80
2022-11-09T09:55:45.108Z,1.00
2022-11-09T09:56:45.120Z,4.30
2022-11-09T09:57:45.100Z,2.70
2022-11-09T09:58:45.106Z,2.50
2022-11-09T09:59:45.081Z,2.60
2022-11-09T10:00:45.086Z,4.70
2022-11-09T10:01:45.065Z,2.70
2022-11-09T10:02:45.080Z,1.30
2022-11-09T10:03:45.025Z,2.10
2022-11-09T10:04:45.177Z,1.80
2022-11-09T10:05:45.077Z,1.90
2022-11-09T10:06:45.097Z,5.80
2022-11-09T10:07:45.031Z,2.60
2022-11-09T10:08:45.004Z,2.30
2022-11-09T10:09:45.018Z,0.80
2022-11-09T10:10:45.014Z,4.00
2022-11-09T10:11:44.961Z,0.80
2022-11-09T10:12:44.953Z,1.80
2022-11-09T10:13:44.967Z,1.80
2022-11-09T10:14:44.982Z,2.10
2022-11-09T10:15:44.941Z,0.70
2022-11-09T10:16:44.960Z,0.80
2022-11-09T10:17:44.998Z,1.00
2022-11-09T10:18:44.904Z,1.20
2022-11-09T10:19:44.935Z,1.20
2022-11-09T10:20:49.086Z,1.40
2022-11-09T10:21:45.894Z,1.40
2022-11-09T10:22:44.902Z,1.00
2022-11-09T10:23:44.874Z,1.90
2022-11-09T10:25:12.889Z,2.10
2022-11-09T10:26:46.902Z,1.20
2022-11-09T10:27:45.087Z,1.30
2022-11-09T10:29:09.627Z,1.00
2022-11-09T10:29:46.885Z,1.20
2022-11-09T10:30:44.836Z,1.80
2022-11-09T10:31:44.802Z,2.40
2022-11-09T10:32:44.809Z,2.60
2022-11-09T10:33:44.813Z,3.50
2022-11-09T10:34:44.811Z,0.70
2022-11-09T10:35:44.840Z,1.30
2022-11-09T10:36:44.769Z,1.10
2022-11-09T10:37:44.775Z,0.40
2022-11-09T10:38:44.766Z,1.10
2022-11-09T10:39:44.766Z,2.50
2022-11-09T10:40:44.753Z,3.20
2022-11-09T10:41:44.758Z,3.90
2022-11-09T10:42:44.723Z,5.30
2022-11-09T10:43:44.712Z,2.70
2022-11-09T10:44:44.704Z,3.20
2022-11-09T10:45:45.715Z,2.50
2022-11-09T10:46:44.694Z,1.50
2022-11-09T10:47:44.684Z,2.00
2022-11-09T10:48:44.718Z,2.80
2022-11-09T10:49:44.677Z,1.30
2022-11-09T10:50:44.703Z,1.00
2022-11-09T10:51:44.646Z,1.10
2022-11-09T10:52:47.659Z,2.10
2022-11-09T10:53:45.662Z,1.40
2022-11-09T10:54:44.628Z,0.80
2022-11-09T10:55:44.642Z,1.10
2022-11-09T10:57:05.117Z,2.80
2022-11-09T10:57:46.640Z,1.20
2022-11-09T10:58:44.612Z,1.60
2022-11-09T10:59:44.644Z,0.90
2022-11-09T11:00:44.654Z,0.60
2022-11-09T11:01:44.648Z,0.80
2022-11-09T11:02:44.574Z,1.70
2022-11-09T11:03:44.598Z,1.90
2022-11-09T11:04:44.590Z,1.70
2022-11-09T11:05:44.564Z,2.20
2022-11-09T11:06:44.613Z,1.10
2022-11-09T11:07:44.543Z,0.50
2022-11-09T11:08:44.582Z,1.10
2022-11-09T11:09:44.540Z,1.20
2022-11-09T11:10:44.539Z,0.90
2022-11-09T11:11:44.501Z,1.00
2022-11-09T11:12:44.504Z,1.70
2022-11-09T11:13:44.505Z,1.10
2022-11-09T11:14:44.507Z,2.40
2022-11-09T11:15:44.474Z,1.80
2022-11-09T11:16:44.475Z,1.20
2022-11-09T11:17:44.493Z,3.40
2022-11-09T11:18:44.460Z,2.90
2022-11-09T11:19:44.452Z,2.70
2022-11-09T11:20:45.473Z,2.50
2022-11-09T11:21:44.457Z,1.00
2022-11-09T11:22:44.421Z,1.80
2022-11-09T11:23:44.435Z,3.50
2022-11-09T11:24:44.452Z,1.10
2022-11-09T11:25:44.396Z,1.50
2022-11-09T11:26:44.401Z,3.60
2022-11-09T11:27:44.390Z,0.60
2022-11-09T11:28:44.413Z,2.10
2022-11-09T11:29:44.376Z,1.20
2022-11-09T11:30:44.379Z,1.00
2022-11-09T11:31:44.352Z,2.70
2022-11-09T11:32:50.090Z,1.00
2022-11-09T11:33:46.321Z,0.90
2022-11-09T11:34:59.861Z,1.70
2022-11-09T11:35:46.340Z,1.90
2022-11-09T11:36:44.318Z,2.20
2022-11-09T11:37:44.301Z,1.60
2022-11-09T11:38:44.315Z,1.80
2022-11-09T11:39:44.292Z,2.40
2022-11-09T11:40:44.297Z,1.20
2022-11-09T11:41:45.302Z,1.20
2022-11-09T11:42:44.294Z,1.40
2022-11-09T11:43:44.262Z,2.90
2022-11-09T11:44:47.866Z,1.60
2022-11-09T11:45:45.250Z,2.00
2022-11-09T11:46:44.299Z,2.00
2022-11-09T11:47:44.222Z,3.00
2022-11-09T11:48:44.239Z,3.10
2022-11-09T11:49:44.236Z,1.20
2022-11-09T11:50:44.224Z,1.50
2022-11-09T11:51:44.213Z,2.70
2022-11-09T11:52:44.188Z,2.50
2022-11-09T11:53:44.166Z,2.20
2022-11-09T11:54:45.217Z,2.00
2022-11-09T11:55:44.227Z,2.50
2022-11-09T11:56:44.188Z,2.80
2022-11-09T11:57:44.138Z,1.70
2022-11-09T11:58:44.175Z,1.70
2022-11-09T11:59:44.157Z,1.90
2022-11-09T12:00:44.142Z,2.30
2022-11-09T12:01:44.153Z,3.00
2022-11-09T12:02:44.238Z,1.80
2022-11-09T12:03:48.145Z,1.70
2022-11-09T12:04:46.096Z,1.40
2022-11-09T12:05:44.077Z,2.20
2022-11-09T12:06:44.462Z,1.80
2022-11-09T12:07:45.093Z,2.80
2022-11-09T12:08:44.062Z,3.30
2022-11-09T12:09:44.056Z,1.70
2022-11-09T12:10:44.080Z,2.80
2022-11-09T12:11:44.048Z,3.40
2022-11-09T12:12:44.046Z,1.80
2022-11-09T12:13:49.348Z,1.80
2022-11-09T12:14:46.025Z,2.70
2022-11-09T12:15:44.032Z,1.90
2022-11-09T12:16:44.020Z,2.00
2022-11-09T12:17:44.042Z,1.50
2022-11-09T12:18:43.989Z,1.60
2022-11-09T12:19:44.031Z,3.00
2022-11-09T12:20:44.007Z,4.60
2022-11-09T12:21:44.003Z,3.10
2022-11-09T12:22:43.944Z,4.20
2022-11-09T12:23:43.948Z,2.00
2022-11-09T12:24:43.984Z,5.10
2022-11-09T12:25:43.928Z,5.10
2022-11-09T12:26:43.975Z,3.60
2022-11-09T12:27:43.916Z,1.70
2022-11-09T12:28:43.912Z,4.40
2022-11-09T12:29:43.934Z,2.60
2022-11-09T12:30:43.938Z,2.60
2022-11-09T12:31:43.925Z,2.70
2022-11-09T12:32:43.931Z,2.50
2022-11-09T12:33:44.141Z,5.30
2022-11-09T12:34:43.895Z,3.10
2022-11-09T12:35:43.972Z,3.30
2022-11-09T12:36:43.897Z,1.40
2022-11-09T12:37:43.912Z,2.60
2022-11-09T12:38:43.817Z,2.90
2022-11-09T12:39:43.824Z,4.80
2022-11-09T12:40:43.867Z,3.20
2022-11-09T12:41:43.808Z,4.50
2022-11-09T12:42:43.920Z,3.90
2022-11-09T12:43:43.859Z,2.50
2022-11-09T12:44:43.803Z,2.90
2022-11-09T12:45:43.804Z,3.10
2022-11-09T12:46:43.832Z,4.20
2022-11-09T12:47:43.765Z,3.70
2022-11-09T12:48:43.750Z,4.80
2022-11-09T12:49:43.740Z,3.10
2022-11-09T12:50:43.765Z,2.90
2022-11-09T12:51:43.760Z,2.90
2022-11-09T12:52:43.752Z,6.20
2022-11-09T12:53:43.779Z,2.30
2022-11-09T12:54:43.727Z,3.10
2022-11-09T12:55:43.716Z,2.60
2022-11-09T12:56:43.715Z,3.70
2022-11-09T12:57:43.679Z,1.90
2022-11-09T12:58:43.683Z,2.20
2022-11-09T12:59:43.670Z,2.00
2022-11-09T13:00:43.658Z,2.90
2022-11-09T13:01:43.743Z,2.80
2022-11-09T13:02:43.646Z,5.30
2022-11-09T13:03:43.653Z,2.20
2022-11-09T13:04:43.620Z,2.60
2022-11-09T13:05:43.651Z,3.40
2022-11-09T13:06:43.671Z,2.40
2022-11-09T13:07:43.604Z,2.00
2022-11-09T13:08:43.612Z,2.50
2022-11-09T13:09:45.114Z,3.20
2022-11-09T13:10:44.624Z,3.80
2022-11-09T13:11:43.552Z,3.80
2022-11-09T13:12:43.598Z,3.60
2022-11-09T13:13:43.576Z,3.50
2022-11-09T13:14:43.537Z,1.90
2022-11-09T13:15:43.576Z,4.30
2022-11-09T13:16:43.533Z,3.40
2022-11-09T13:17:43.543Z,3.50
2022-11-09T13:18:45.701Z,2.60
2022-11-09T13:19:44.492Z,3.50
2022-11-09T13:20:58.986Z,3.70
2022-11-09T13:21:45.538Z,2.70
2022-11-09T13:22:43.516Z,2.80
2022-11-09T13:24:45.553Z,2.50
2022-11-09T13:25:43.455Z,3.50
2022-11-09T13:26:43.447Z,3.00
2022-11-09T13:27:43.469Z,4.00
2022-11-09T13:28:43.488Z,3.50
2022-11-09T13:29:43.450Z,4.80
2022-11-09T13:30:43.435Z,2.30
2022-11-09T13:31:44.205Z,3.30
2022-11-09T13:32:44.072Z,2.40
2022-11-09T13:33:43.402Z,8.80
2022-11-09T13:34:43.410Z,2.20
2022-11-09T13:35:43.400Z,3.40
2022-11-09T13:36:43.420Z,3.10
2022-11-09T13:37:43.352Z,3.10
2022-11-09T13:38:43.339Z,1.50
2022-11-09T13:39:43.382Z,1.90
2022-11-09T13:40:43.361Z,2.60
2022-11-09T13:41:43.382Z,3.10
2022-11-09T13:42:43.373Z,4.60
2022-11-09T13:43:43.313Z,3.20
2022-11-09T13:44:45.845Z,3.50
2022-11-09T13:45:44.323Z,3.30
2022-11-09T13:46:43.338Z,3.40
2022-11-09T13:47:43.303Z,2.80
2022-11-09T13:48:43.285Z,1.90
2022-11-09T13:49:43.256Z,3.60
2022-11-09T13:50:43.282Z,4.80